sensor_id;sensor_type;location;lat;lon;timestamp;temperature;humidity
32749;DHT22;19119;52.474;13.710;2023-04-12T00:01:55;3.40;99.90
32749;DHT22;19119;52.474;13.710;2023-04-12T00:04:22;3.30;99.90
32749;DHT22;19119;52.474;13.710;2023-04-12T00:06:51;3.30;99.90
32749;DHT22;19119;52.474;13.710;2023-04-12T00:09:19;3.30;99.90
32749;DHT22;19119;52.474;13.710;2023-04-12T00:11:46;3.30;99.90
32749;DHT22;19119;52.474;13.710;2023-04-12T00:14:12;3.20;99.90
32749;DHT22;19119;52.474;13.710;2023-04-12T00:16:38;3.10;99.90
32749;DHT22;19119;52.474;13.710;2023-04-12T00:19:05;3.10;99.90
32749;DHT22;19119;52.474;13.710;2023-04-12T00:21:32;3.20;99.90
32749;DHT22;19119;52.474;13.710;2023-04-12T00:23:58;3.10;99.90
32749;DHT22;19119;52.474;13.710;2023-04-12T00:26:23;3.00;99.90
32749;DHT22;19119;52.474;13.710;2023-04-12T00:28:52;2.90;99.90
32749;DHT22;19119;52.474;13.710;2023-04-12T00:31:18;2.90;99.90
32749;DHT22;19119;52.474;13.710;2023-04-12T00:33:43;2.90;99.90
32749;DHT22;19119;52.474;13.710;2023-04-12T00:36:09;2.90;99.90
32749;DHT22;19119;52.474;13.710;2023-04-12T00:38:34;2.90;99.90
32749;DHT22;19119;52.474;13.710;2023-04-12T00:41:01;2.80;99.90
32749;DHT22;19119;52.474;13.710;2023-04-12T00:43:27;2.80;99.90
32749;DHT22;19119;52.474;13.710;2023-04-12T00:45:56;2.80;99.90
32749;DHT22;19119;52.474;13.710;2023-04-12T00:48:25;2.90;99.90
32749;DHT22;19119;52.474;13.710;2023-04-12T00:50:52;2.80;99.90
32749;DHT22;19119;52.474;13.710;2023-04-12T00:53:21;2.80;99.90
32749;DHT22;19119;52.474;13.710;2023-04-12T00:55:50;2.70;99.90
32749;DHT22;19119;52.474;13.710;2023-04-12T00:58:16;2.70;99.90
32749;DHT22;19119;52.474;13.710;2023-04-12T01:00:42;2.60;99.90
32749;DHT22;19119;52.474;13.710;2023-04-12T01:03:16;2.50;99.90
32749;DHT22;19119;52.474;13.710;2023-04-12T01:08:55;2.50;99.90
32749;DHT22;19119;52.474;13.710;2023-04-12T01:11:32;2.50;99.90
32749;DHT22;19119;52.474;13.710;2023-04-12T01:15:02;2.50;99.90
32749;DHT22;19119;52.474;13.710;2023-04-12T01:17:10;2.50;99.90
32749;DHT22;19119;52.474;13.710;2023-04-12T01:19:52;2.50;99.90
32749;DHT22;19119;52.474;13.710;2023-04-12T01:25:19;2.40;99.90
32749;DHT22;19119;52.474;13.710;2023-04-12T01:28:52;2.40;99.90
32749;DHT22;19119;52.474;13.710;2023-04-12T01:31:11;2.30;99.90
32749;DHT22;19119;52.474;13.710;2023-04-12T01:33:39;2.30;99.90
32749;DHT22;19119;52.474;13.710;2023-04-12T01:36:14;2.30;99.90
32749;DHT22;19119;52.474;13.710;2023-04-12T01:38:40;2.20;99.90
32749;DHT22;19119;52.474;13.710;2023-04-12T01:41:07;2.20;99.90
32749;DHT22;19119;52.474;13.710;2023-04-12T01:43:32;2.10;99.90
32749;DHT22;19119;52.474;13.710;2023-04-12T01:45:58;2.00;99.90
32749;DHT22;19119;52.474;13.710;2023-04-12T01:48:24;2.00;99.90
32749;DHT22;19119;52.474;13.710;2023-04-12T01:56:15;2.00;99.90
32749;DHT22;19119;52.474;13.710;2023-04-12T01:58:42;2.00;99.90
32749;DHT22;19119;52.474;13.710;2023-04-12T02:01:10;2.00;99.90
32749;DHT22;19119;52.474;13.710;2023-04-12T02:03:38;1.90;99.90
32749;DHT22;19119;52.474;13.710;2023-04-12T02:06:07;1.90;99.90
32749;DHT22;19119;52.474;13.710;2023-04-12T02:08:34;1.90;99.90
32749;DHT22;19119;52.474;13.710;2023-04-12T02:11:00;1.80;99.90
32749;DHT22;19119;52.474;13.710;2023-04-12T02:13:32;1.80;99.90
32749;DHT22;19119;52.474;13.710;2023-04-12T02:15:57;1.90;99.90
32749;DHT22;19119;52.474;13.710;2023-04-12T02:18:23;1.80;99.90
32749;DHT22;19119;52.474;13.710;2023-04-12T02:20:50;1.70;99.90
32749;DHT22;19119;52.474;13.710;2023-04-12T02:23:15;1.70;99.90
32749;DHT22;19119;52.474;13.710;2023-04-12T02:25:41;1.70;99.90
32749;DHT22;19119;52.474;13.710;2023-04-12T02:28:10;1.60;99.90
32749;DHT22;19119;52.474;13.710;2023-04-12T02:30:35;1.70;99.90
32749;DHT22;19119;52.474;13.710;2023-04-12T02:33:04;1.60;99.90
32749;DHT22;19119;52.474;13.710;2023-04-12T02:35:30;1.60;99.90
32749;DHT22;19119;52.474;13.710;2023-04-12T02:37:56;1.60;99.90
32749;DHT22;19119;52.474;13.710;2023-04-12T02:40:23;1.50;99.90
32749;DHT22;19119;52.474;13.710;2023-04-12T02:42:49;1.50;99.90
32749;DHT22;19119;52.474;13.710;2023-04-12T02:45:14;1.50;99.90
32749;DHT22;19119;52.474;13.710;2023-04-12T02:47:40;1.40;99.90
32749;DHT22;19119;52.474;13.710;2023-04-12T02:50:06;1.40;99.90
32749;DHT22;19119;52.474;13.710;2023-04-12T02:52:32;1.40;99.90
32749;DHT22;19119;52.474;13.710;2023-04-12T02:54:57;1.30;99.90
32749;DHT22;19119;52.474;13.710;2023-04-12T02:57:23;1.20;99.90
32749;DHT22;19119;52.474;13.710;2023-04-12T02:59:52;1.40;99.90
32749;DHT22;19119;52.474;13.710;2023-04-12T03:02:22;1.30;99.90
32749;DHT22;19119;52.474;13.710;2023-04-12T03:04:48;1.30;99.90
32749;DHT22;19119;52.474;13.710;2023-04-12T03:07:19;1.20;99.90
32749;DHT22;19119;52.474;13.710;2023-04-12T03:09:49;1.20;99.90
32749;DHT22;19119;52.474;13.710;2023-04-12T03:12:16;1.10;99.90
32749;DHT22;19119;52.474;13.710;2023-04-12T03:14:41;1.20;99.90
32749;DHT22;19119;52.474;13.710;2023-04-12T03:17:07;1.10;99.90
32749;DHT22;19119;52.474;13.710;2023-04-12T03:19:34;1.30;99.90
32749;DHT22;19119;52.474;13.710;2023-04-12T03:22:01;1.10;99.90
32749;DHT22;19119;52.474;13.710;2023-04-12T03:24:28;1.10;99.90
32749;DHT22;19119;52.474;13.710;2023-04-12T03:26:53;1.00;99.90
32749;DHT22;19119;52.474;13.710;2023-04-12T03:29:19;1.00;99.90
32749;DHT22;19119;52.474;13.710;2023-04-12T03:31:45;1.00;99.90
32749;DHT22;19119;52.474;13.710;2023-04-12T03:34:10;1.00;99.90
32749;DHT22;19119;52.474;13.710;2023-04-12T03:36:36;1.00;99.90
32749;DHT22;19119;52.474;13.710;2023-04-12T03:39:02;1.00;99.90
32749;DHT22;19119;52.474;13.710;2023-04-12T03:41:28;1.00;99.90
32749;DHT22;19119;52.474;13.710;2023-04-12T03:43:54;1.00;99.90
32749;DHT22;19119;52.474;13.710;2023-04-12T03:46:20;1.00;99.90
32749;DHT22;19119;52.474;13.710;2023-04-12T03:48:45;1.00;99.90
32749;DHT22;19119;52.474;13.710;2023-04-12T03:51:12;0.90;99.90
32749;DHT22;19119;52.474;13.710;2023-04-12T03:53:39;0.80;99.90
32749;DHT22;19119;52.474;13.710;2023-04-12T03:56:05;0.90;99.90
32749;DHT22;19119;52.474;13.710;2023-04-12T03:58:31;0.80;99.90
32749;DHT22;19119;52.474;13.710;2023-04-12T04:00:59;0.90;99.90
32749;DHT22;19119;52.474;13.710;2023-04-12T04:03:26;0.90;99.90
32749;DHT22;19119;52.474;13.710;2023-04-12T04:05:54;0.80;99.90
32749;DHT22;19119;52.474;13.710;2023-04-12T04:08:20;0.80;99.90
32749;DHT22;19119;52.474;13.710;2023-04-12T04:10:45;0.90;99.90
32749;DHT22;19119;52.474;13.710;2023-04-12T04:13:11;0.80;99.90
32749;DHT22;19119;52.474;13.710;2023-04-12T04:15:37;0.80;99.90
32749;DHT22;19119;52.474;13.710;2023-04-12T04:18:02;0.70;99.90
32749;DHT22;19119;52.474;13.710;2023-04-12T04:20:28;0.80;99.90
32749;DHT22;19119;52.474;13.710;2023-04-12T04:22:53;0.80;99.90
32749;DHT22;19119;52.474;13.710;2023-04-12T04:25:19;0.70;99.90
32749;DHT22;19119;52.474;13.710;2023-04-12T04:27:44;0.70;99.90
32749;DHT22;19119;52.474;13.710;2023-04-12T04:30:11;0.60;99.90
32749;DHT22;19119;52.474;13.710;2023-04-12T04:32:37;0.70;99.90
32749;DHT22;19119;52.474;13.710;2023-04-12T04:35:03;0.80;99.90
32749;DHT22;19119;52.474;13.710;2023-04-12T04:37:30;0.80;99.90
32749;DHT22;19119;52.474;13.710;2023-04-12T04:39:56;0.80;99.90
32749;DHT22;19119;52.474;13.710;2023-04-12T04:42:22;0.80;99.90
32749;DHT22;19119;52.474;13.710;2023-04-12T04:44:48;0.80;99.90
32749;DHT22;19119;52.474;13.710;2023-04-12T04:47:15;0.90;99.90
32749;DHT22;19119;52.474;13.710;2023-04-12T04:49:43;0.90;99.90
32749;DHT22;19119;52.474;13.710;2023-04-12T04:52:08;0.90;99.90
32749;DHT22;19119;52.474;13.710;2023-04-12T04:54:34;1.00;99.90
32749;DHT22;19119;52.474;13.710;2023-04-12T04:57:00;1.00;99.90
32749;DHT22;19119;52.474;13.710;2023-04-12T04:59:26;1.20;99.90
32749;DHT22;19119;52.474;13.710;2023-04-12T05:01:51;1.40;99.90
32749;DHT22;19119;52.474;13.710;2023-04-12T05:04:17;1.50;99.90
32749;DHT22;19119;52.474;13.710;2023-04-12T05:06:42;1.70;99.90
32749;DHT22;19119;52.474;13.710;2023-04-12T05:09:08;2.00;99.90
32749;DHT22;19119;52.474;13.710;2023-04-12T05:11:34;2.30;99.90
32749;DHT22;19119;52.474;13.710;2023-04-12T05:14:00;2.60;99.90
32749;DHT22;19119;52.474;13.710;2023-04-12T05:16:25;2.80;99.90
32749;DHT22;19119;52.474;13.710;2023-04-12T05:18:51;3.00;99.90
32749;DHT22;19119;52.474;13.710;2023-04-12T05:21:16;3.20;99.90
32749;DHT22;19119;52.474;13.710;2023-04-12T05:23:44;3.50;99.90
32749;DHT22;19119;52.474;13.710;2023-04-12T05:26:10;3.60;99.90
32749;DHT22;19119;52.474;13.710;2023-04-12T05:28:36;3.80;99.90
32749;DHT22;19119;52.474;13.710;2023-04-12T05:31:02;4.00;99.90
32749;DHT22;19119;52.474;13.710;2023-04-12T05:33:27;4.20;99.90
32749;DHT22;19119;52.474;13.710;2023-04-12T05:35:53;4.40;99.90
32749;DHT22;19119;52.474;13.710;2023-04-12T05:38:18;4.40;99.90
32749;DHT22;19119;52.474;13.710;2023-04-12T05:40:44;4.40;99.90
32749;DHT22;19119;52.474;13.710;2023-04-12T05:43:09;4.50;99.90
32749;DHT22;19119;52.474;13.710;2023-04-12T05:45:39;4.80;99.90
32749;DHT22;19119;52.474;13.710;2023-04-12T05:48:05;4.90;99.90
32749;DHT22;19119;52.474;13.710;2023-04-12T05:50:31;5.00;99.90
32749;DHT22;19119;52.474;13.710;2023-04-12T05:52:56;5.00;99.90
32749;DHT22;19119;52.474;13.710;2023-04-12T05:55:22;5.10;99.90
32749;DHT22;19119;52.474;13.710;2023-04-12T05:57:47;5.30;99.90
32749;DHT22;19119;52.474;13.710;2023-04-12T06:00:13;5.50;99.90
32749;DHT22;19119;52.474;13.710;2023-04-12T06:02:43;5.60;99.90
32749;DHT22;19119;52.474;13.710;2023-04-12T06:05:08;5.80;99.90
32749;DHT22;19119;52.474;13.710;2023-04-12T06:07:36;5.90;99.90
32749;DHT22;19119;52.474;13.710;2023-04-12T06:10:03;6.00;99.90
32749;DHT22;19119;52.474;13.710;2023-04-12T06:12:29;6.10;99.90
32749;DHT22;19119;52.474;13.710;2023-04-12T06:14:55;6.30;99.90
32749;DHT22;19119;52.474;13.710;2023-04-12T06:17:20;6.40;99.90
32749;DHT22;19119;52.474;13.710;2023-04-12T06:19:46;6.40;99.90
32749;DHT22;19119;52.474;13.710;2023-04-12T06:22:12;6.40;99.90
32749;DHT22;19119;52.474;13.710;2023-04-12T06:24:37;6.60;99.90
32749;DHT22;19119;52.474;13.710;2023-04-12T06:27:03;6.80;99.90
32749;DHT22;19119;52.474;13.710;2023-04-12T06:29:28;6.90;99.90
32749;DHT22;19119;52.474;13.710;2023-04-12T06:31:54;7.00;99.90
32749;DHT22;19119;52.474;13.710;2023-04-12T06:34:20;7.30;99.90
32749;DHT22;19119;52.474;13.710;2023-04-12T06:36:46;7.50;99.90
32749;DHT22;19119;52.474;13.710;2023-04-12T06:39:12;7.60;99.90
32749;DHT22;19119;52.474;13.710;2023-04-12T06:41:38;7.60;99.90
32749;DHT22;19119;52.474;13.710;2023-04-12T06:44:04;7.60;99.90
32749;DHT22;19119;52.474;13.710;2023-04-12T06:46:30;7.60;99.90
32749;DHT22;19119;52.474;13.710;2023-04-12T06:48:56;7.60;99.90
32749;DHT22;19119;52.474;13.710;2023-04-12T06:51:21;7.80;99.90
32749;DHT22;19119;52.474;13.710;2023-04-12T06:53:47;7.90;99.90
32749;DHT22;19119;52.474;13.710;2023-04-12T06:56:12;8.10;99.90
32749;DHT22;19119;52.474;13.710;2023-04-12T06:58:38;8.30;99.90
32749;DHT22;19119;52.474;13.710;2023-04-12T07:01:07;8.50;99.90
32749;DHT22;19119;52.474;13.710;2023-04-12T07:03:34;8.50;99.90
32749;DHT22;19119;52.474;13.710;2023-04-12T07:06:00;8.60;99.90
32749;DHT22;19119;52.474;13.710;2023-04-12T07:08:27;8.90;99.90
32749;DHT22;19119;52.474;13.710;2023-04-12T07:10:54;9.00;99.90
32749;DHT22;19119;52.474;13.710;2023-04-12T07:13:20;9.20;99.90
32749;DHT22;19119;52.474;13.710;2023-04-12T07:15:47;9.20;99.90
32749;DHT22;19119;52.474;13.710;2023-04-12T07:18:13;9.40;99.90
32749;DHT22;19119;52.474;13.710;2023-04-12T07:20:38;9.50;99.90
32749;DHT22;19119;52.474;13.710;2023-04-12T07:23:04;9.70;99.90
32749;DHT22;19119;52.474;13.710;2023-04-12T07:25:29;9.70;99.90
32749;DHT22;19119;52.474;13.710;2023-04-12T07:27:54;9.90;99.90
32749;DHT22;19119;52.474;13.710;2023-04-12T07:30:21;10.10;99.90
32749;DHT22;19119;52.474;13.710;2023-04-12T07:32:46;10.50;99.90
32749;DHT22;19119;52.474;13.710;2023-04-12T07:35:11;10.50;99.90
32749;DHT22;19119;52.474;13.710;2023-04-12T07:37:37;10.70;99.90
32749;DHT22;19119;52.474;13.710;2023-04-12T07:40:03;11.00;99.90
32749;DHT22;19119;52.474;13.710;2023-04-12T07:42:28;11.20;99.90
32749;DHT22;19119;52.474;13.710;2023-04-12T07:44:54;11.20;99.90
32749;DHT22;19119;52.474;13.710;2023-04-12T07:47:19;11.40;99.90
32749;DHT22;19119;52.474;13.710;2023-04-12T07:49:45;11.70;99.90
32749;DHT22;19119;52.474;13.710;2023-04-12T07:52:10;11.80;99.90
32749;DHT22;19119;52.474;13.710;2023-04-12T07:54:37;11.80;99.90
32749;DHT22;19119;52.474;13.710;2023-04-12T07:57:03;11.50;99.90
32749;DHT22;19119;52.474;13.710;2023-04-12T07:59:29;11.90;99.90
32749;DHT22;19119;52.474;13.710;2023-04-12T08:01:57;12.00;99.90
32749;DHT22;19119;52.474;13.710;2023-04-12T08:04:22;12.20;99.90
32749;DHT22;19119;52.474;13.710;2023-04-12T08:06:48;12.10;99.90
32749;DHT22;19119;52.474;13.710;2023-04-12T08:09:14;12.50;99.90
32749;DHT22;19119;52.474;13.710;2023-04-12T08:11:40;12.70;99.90
32749;DHT22;19119;52.474;13.710;2023-04-12T08:14:05;12.70;99.90
32749;DHT22;19119;52.474;13.710;2023-04-12T08:16:31;12.90;99.90
32749;DHT22;19119;52.474;13.710;2023-04-12T08:18:57;12.50;99.90
32749;DHT22;19119;52.474;13.710;2023-04-12T08:21:22;12.70;99.90
32749;DHT22;19119;52.474;13.710;2023-04-12T08:23:48;12.70;99.90
32749;DHT22;19119;52.474;13.710;2023-04-12T08:26:15;13.00;99.90
32749;DHT22;19119;52.474;13.710;2023-04-12T08:28:41;13.10;99.90
32749;DHT22;19119;52.474;13.710;2023-04-12T08:31:07;13.70;99.90
32749;DHT22;19119;52.474;13.710;2023-04-12T08:33:32;13.80;99.90
32749;DHT22;19119;52.474;13.710;2023-04-12T08:35:58;14.00;99.90
32749;DHT22;19119;52.474;13.710;2023-04-12T08:38:23;13.60;99.90
32749;DHT22;19119;52.474;13.710;2023-04-12T08:40:49;13.80;99.90
32749;DHT22;19119;52.474;13.710;2023-04-12T08:43:17;13.80;99.90
32749;DHT22;19119;52.474;13.710;2023-04-12T08:45:42;14.20;99.90
32749;DHT22;19119;52.474;13.710;2023-04-12T08:48:08;14.40;99.90
32749;DHT22;19119;52.474;13.710;2023-04-12T08:50:34;14.20;99.90
32749;DHT22;19119;52.474;13.710;2023-04-12T08:52:59;14.50;99.90
32749;DHT22;19119;52.474;13.710;2023-04-12T08:55:25;14.60;99.90
32749;DHT22;19119;52.474;13.710;2023-04-12T08:57:53;14.90;99.90
32749;DHT22;19119;52.474;13.710;2023-04-12T09:00:20;15.00;99.90
32749;DHT22;19119;52.474;13.710;2023-04-12T09:02:46;15.30;99.90
32749;DHT22;19119;52.474;13.710;2023-04-12T09:05:13;15.20;99.90
32749;DHT22;19119;52.474;13.710;2023-04-12T09:07:40;15.40;99.90
32749;DHT22;19119;52.474;13.710;2023-04-12T09:10:06;15.50;99.90
32749;DHT22;19119;52.474;13.710;2023-04-12T09:12:32;15.30;99.90
32749;DHT22;19119;52.474;13.710;2023-04-12T09:15:07;15.20;99.90
32749;DHT22;19119;52.474;13.710;2023-04-12T09:17:35;15.20;99.90
32749;DHT22;19119;52.474;13.710;2023-04-12T09:20:21;15.50;99.90
32749;DHT22;19119;52.474;13.710;2023-04-12T09:22:50;15.70;99.90
32749;DHT22;19119;52.474;13.710;2023-04-12T09:25:18;15.90;99.90
32749;DHT22;19119;52.474;13.710;2023-04-12T09:27:51;15.70;99.90
32749;DHT22;19119;52.474;13.710;2023-04-12T09:30:19;16.10;99.90
32749;DHT22;19119;52.474;13.710;2023-04-12T09:32:45;16.40;99.90
32749;DHT22;19119;52.474;13.710;2023-04-12T09:35:13;16.40;99.90
32749;DHT22;19119;52.474;13.710;2023-04-12T09:37:39;15.80;99.10
32749;DHT22;19119;52.474;13.710;2023-04-12T09:40:06;15.70;99.40
32749;DHT22;19119;52.474;13.710;2023-04-12T09:42:32;15.70;98.70
32749;DHT22;19119;52.474;13.710;2023-04-12T09:45:00;16.20;98.90
32749;DHT22;19119;52.474;13.710;2023-04-12T09:47:37;16.70;99.60
32749;DHT22;19119;52.474;13.710;2023-04-12T09:50:07;16.60;99.00
32749;DHT22;19119;52.474;13.710;2023-04-12T09:52:37;16.00;98.00
32749;DHT22;19119;52.474;13.710;2023-04-12T09:55:08;16.30;98.50
32749;DHT22;19119;52.474;13.710;2023-04-12T09:57:37;16.80;99.30
32749;DHT22;19119;52.474;13.710;2023-04-12T10:00:06;16.20;97.80
32749;DHT22;19119;52.474;13.710;2023-04-12T10:02:39;16.60;98.30
32749;DHT22;19119;52.474;13.710;2023-04-12T10:05:06;16.60;98.40
32749;DHT22;19119;52.474;13.710;2023-04-12T10:07:35;16.70;98.20
32749;DHT22;19119;52.474;13.710;2023-04-12T10:10:01;16.70;98.60
32749;DHT22;19119;52.474;13.710;2023-04-12T10:12:28;17.00;97.90
32749;DHT22;19119;52.474;13.710;2023-04-12T10:14:54;17.00;97.30
32749;DHT22;19119;52.474;13.710;2023-04-12T10:17:21;16.80;97.20
32749;DHT22;19119;52.474;13.710;2023-04-12T10:19:50;16.90;97.00
32749;DHT22;19119;52.474;13.710;2023-04-12T10:22:16;16.70;97.80
32749;DHT22;19119;52.474;13.710;2023-04-12T10:24:42;16.80;97.90
32749;DHT22;19119;52.474;13.710;2023-04-12T10:27:08;17.00;98.40
32749;DHT22;19119;52.474;13.710;2023-04-12T10:29:34;17.20;97.90
32749;DHT22;19119;52.474;13.710;2023-04-12T10:32:22;17.30;98.80
32749;DHT22;19119;52.474;13.710;2023-04-12T10:34:53;17.90;98.30
32749;DHT22;19119;52.474;13.710;2023-04-12T10:37:19;17.70;97.00
32749;DHT22;19119;52.474;13.710;2023-04-12T10:39:51;17.70;96.80
32749;DHT22;19119;52.474;13.710;2023-04-12T10:42:28;17.40;97.20
32749;DHT22;19119;52.474;13.710;2023-04-12T10:44:55;17.50;97.70
32749;DHT22;19119;52.474;13.710;2023-04-12T10:50:32;18.10;96.80
32749;DHT22;19119;52.474;13.710;2023-04-12T10:55:41;17.90;96.70
32749;DHT22;19119;52.474;13.710;2023-04-12T10:58:10;18.10;97.40
32749;DHT22;19119;52.474;13.710;2023-04-12T11:03:23;17.70;95.20
32749;DHT22;19119;52.474;13.710;2023-04-12T11:05:57;17.70;94.30
32749;DHT22;19119;52.474;13.710;2023-04-12T11:08:26;17.70;95.10
32749;DHT22;19119;52.474;13.710;2023-04-12T11:10:58;17.70;95.40
32749;DHT22;19119;52.474;13.710;2023-04-12T11:13:25;18.20;96.30
32749;DHT22;19119;52.474;13.710;2023-04-12T11:15:54;18.30;95.50
32749;DHT22;19119;52.474;13.710;2023-04-12T11:18:21;18.60;95.60
32749;DHT22;19119;52.474;13.710;2023-04-12T11:20:47;18.50;95.70
32749;DHT22;19119;52.474;13.710;2023-04-12T11:23:13;18.90;97.20
32749;DHT22;19119;52.474;13.710;2023-04-12T11:25:39;18.60;96.00
32749;DHT22;19119;52.474;13.710;2023-04-12T11:28:05;18.20;94.60
32749;DHT22;19119;52.474;13.710;2023-04-12T11:30:31;18.20;94.90
32749;DHT22;19119;52.474;13.710;2023-04-12T11:32:56;18.40;96.20
32749;DHT22;19119;52.474;13.710;2023-04-12T11:35:22;18.80;94.90
32749;DHT22;19119;52.474;13.710;2023-04-12T11:37:53;18.50;94.40
32749;DHT22;19119;52.474;13.710;2023-04-12T11:40:20;18.50;94.50
32749;DHT22;19119;52.474;13.710;2023-04-12T11:42:47;18.60;94.70
32749;DHT22;19119;52.474;13.710;2023-04-12T11:45:18;18.60;94.90
32749;DHT22;19119;52.474;13.710;2023-04-12T11:47:45;18.50;95.20
32749;DHT22;19119;52.474;13.710;2023-04-12T11:50:10;18.50;96.00
32749;DHT22;19119;52.474;13.710;2023-04-12T11:52:36;18.20;95.10
32749;DHT22;19119;52.474;13.710;2023-04-12T11:55:03;18.30;95.30
32749;DHT22;19119;52.474;13.710;2023-04-12T11:57:31;18.30;96.00
32749;DHT22;19119;52.474;13.710;2023-04-12T11:59:58;18.60;94.50
32749;DHT22;19119;52.474;13.710;2023-04-12T12:02:24;18.90;94.70
32749;DHT22;19119;52.474;13.710;2023-04-12T12:04:50;18.60;93.80
32749;DHT22;19119;52.474;13.710;2023-04-12T12:07:16;18.50;93.60
32749;DHT22;19119;52.474;13.710;2023-04-12T12:09:43;18.60;93.70
32749;DHT22;19119;52.474;13.710;2023-04-12T12:12:13;18.60;94.30
32749;DHT22;19119;52.474;13.710;2023-04-12T12:14:39;18.10;94.00
32749;DHT22;19119;52.474;13.710;2023-04-12T12:17:13;17.70;93.60
32749;DHT22;19119;52.474;13.710;2023-04-12T12:19:40;18.10;93.80
32749;DHT22;19119;52.474;13.710;2023-04-12T12:22:25;18.30;93.80
32749;DHT22;19119;52.474;13.710;2023-04-12T12:24:55;18.50;93.40
32749;DHT22;19119;52.474;13.710;2023-04-12T12:27:23;18.30;93.10
32749;DHT22;19119;52.474;13.710;2023-04-12T12:29:53;17.60;93.20
32749;DHT22;19119;52.474;13.710;2023-04-12T12:32:20;17.40;93.60
32749;DHT22;19119;52.474;13.710;2023-04-12T12:34:54;17.70;94.30
32749;DHT22;19119;52.474;13.710;2023-04-12T12:37:22;17.60;93.40
32749;DHT22;19119;52.474;13.710;2023-04-12T12:40:10;17.60;93.70
32749;DHT22;19119;52.474;13.710;2023-04-12T12:42:54;17.80;93.70
32749;DHT22;19119;52.474;13.710;2023-04-12T12:45:21;17.90;93.80
32749;DHT22;19119;52.474;13.710;2023-04-12T12:47:52;17.70;94.20
32749;DHT22;19119;52.474;13.710;2023-04-12T12:50:21;17.60;94.00
32749;DHT22;19119;52.474;13.710;2023-04-12T12:52:47;17.40;93.70
32749;DHT22;19119;52.474;13.710;2023-04-12T12:55:14;17.40;94.30
32749;DHT22;19119;52.474;13.710;2023-04-12T12:57:44;17.30;94.00
32749;DHT22;19119;52.474;13.710;2023-04-12T13:00:12;16.90;94.20
32749;DHT22;19119;52.474;13.710;2023-04-12T13:02:39;16.90;94.30
32749;DHT22;19119;52.474;13.710;2023-04-12T13:05:06;16.70;93.30
32749;DHT22;19119;52.474;13.710;2023-04-12T13:07:31;16.60;94.40
32749;DHT22;19119;52.474;13.710;2023-04-12T13:09:57;16.50;94.10
32749;DHT22;19119;52.474;13.710;2023-04-12T13:12:23;16.20;94.30
32749;DHT22;19119;52.474;13.710;2023-04-12T13:14:49;16.40;94.90
32749;DHT22;19119;52.474;13.710;2023-04-12T13:17:14;16.50;93.90
32749;DHT22;19119;52.474;13.710;2023-04-12T13:19:40;16.70;94.20
32749;DHT22;19119;52.474;13.710;2023-04-12T13:22:06;16.80;94.60
32749;DHT22;19119;52.474;13.710;2023-04-12T13:24:35;17.10;93.70
32749;DHT22;19119;52.474;13.710;2023-04-12T13:27:00;17.30;94.30
32749;DHT22;19119;52.474;13.710;2023-04-12T13:29:27;17.10;93.40
32749;DHT22;19119;52.474;13.710;2023-04-12T13:31:54;16.80;94.20
32749;DHT22;19119;52.474;13.710;2023-04-12T13:34:20;16.90;94.40
32749;DHT22;19119;52.474;13.710;2023-04-12T13:36:46;16.70;93.90
32749;DHT22;19119;52.474;13.710;2023-04-12T13:39:11;16.60;93.70
32749;DHT22;19119;52.474;13.710;2023-04-12T13:41:37;16.80;94.30
32749;DHT22;19119;52.474;13.710;2023-04-12T13:44:03;16.90;94.30
32749;DHT22;19119;52.474;13.710;2023-04-12T13:46:30;16.90;93.90
32749;DHT22;19119;52.474;13.710;2023-04-12T13:48:55;17.10;93.30
32749;DHT22;19119;52.474;13.710;2023-04-12T13:51:21;17.10;94.50
32749;DHT22;19119;52.474;13.710;2023-04-12T13:53:46;17.10;94.20
32749;DHT22;19119;52.474;13.710;2023-04-12T13:56:12;17.40;93.60
32749;DHT22;19119;52.474;13.710;2023-04-12T13:58:37;17.60;93.80
32749;DHT22;19119;52.474;13.710;2023-04-12T14:01:06;17.60;94.50
32749;DHT22;19119;52.474;13.710;2023-04-12T14:03:32;17.80;94.20
32749;DHT22;19119;52.474;13.710;2023-04-12T14:05:58;17.30;93.50
32749;DHT22;19119;52.474;13.710;2023-04-12T14:08:25;17.40;93.90
32749;DHT22;19119;52.474;13.710;2023-04-12T14:10:51;17.20;93.40
32749;DHT22;19119;52.474;13.710;2023-04-12T14:13:20;16.90;94.00
32749;DHT22;19119;52.474;13.710;2023-04-12T14:15:46;17.10;93.80
32749;DHT22;19119;52.474;13.710;2023-04-12T14:18:11;16.90;93.80
32749;DHT22;19119;52.474;13.710;2023-04-12T14:20:37;16.80;93.90
32749;DHT22;19119;52.474;13.710;2023-04-12T14:23:02;16.60;93.70
32749;DHT22;19119;52.474;13.710;2023-04-12T14:25:28;16.40;93.70
32749;DHT22;19119;52.474;13.710;2023-04-12T14:27:53;16.10;93.90
32749;DHT22;19119;52.474;13.710;2023-04-12T14:30:19;16.00;94.00
32749;DHT22;19119;52.474;13.710;2023-04-12T14:32:45;15.90;93.90
32749;DHT22;19119;52.474;13.710;2023-04-12T14:35:11;15.90;94.30
32749;DHT22;19119;52.474;13.710;2023-04-12T14:37:38;15.80;93.90
32749;DHT22;19119;52.474;13.710;2023-04-12T14:40:03;15.70;94.50
32749;DHT22;19119;52.474;13.710;2023-04-12T14:42:31;15.60;94.50
32749;DHT22;19119;52.474;13.710;2023-04-12T14:44:56;15.50;94.80
32749;DHT22;19119;52.474;13.710;2023-04-12T14:47:22;15.60;94.40
32749;DHT22;19119;52.474;13.710;2023-04-12T14:49:47;15.60;94.80
32749;DHT22;19119;52.474;13.710;2023-04-12T14:52:13;15.70;95.00
32749;DHT22;19119;52.474;13.710;2023-04-12T14:54:38;15.60;94.50
32749;DHT22;19119;52.474;13.710;2023-04-12T14:57:04;15.70;95.20
32749;DHT22;19119;52.474;13.710;2023-04-12T14:59:30;15.50;94.40
32749;DHT22;19119;52.474;13.710;2023-04-12T15:01:55;15.50;95.30
32749;DHT22;19119;52.474;13.710;2023-04-12T15:04:23;15.30;94.70
32749;DHT22;19119;52.474;13.710;2023-04-12T15:06:49;15.40;95.20
32749;DHT22;19119;52.474;13.710;2023-04-12T15:09:16;15.20;95.20
32749;DHT22;19119;52.474;13.710;2023-04-12T15:11:42;15.20;95.40
32749;DHT22;19119;52.474;13.710;2023-04-12T15:14:12;15.20;95.40
32749;DHT22;19119;52.474;13.710;2023-04-12T15:16:44;15.20;95.20
32749;DHT22;19119;52.474;13.710;2023-04-12T15:19:13;15.20;95.80
32749;DHT22;19119;52.474;13.710;2023-04-12T15:21:39;15.30;95.80
32749;DHT22;19119;52.474;13.710;2023-04-12T15:24:04;15.20;95.70
32749;DHT22;19119;52.474;13.710;2023-04-12T15:26:32;15.20;95.70
32749;DHT22;19119;52.474;13.710;2023-04-12T15:28:58;15.00;95.20
32749;DHT22;19119;52.474;13.710;2023-04-12T15:31:25;15.00;96.60
32749;DHT22;19119;52.474;13.710;2023-04-12T15:33:50;14.90;96.00
32749;DHT22;19119;52.474;13.710;2023-04-12T15:36:15;14.70;95.90
32749;DHT22;19119;52.474;13.710;2023-04-12T15:38:44;14.50;96.10
32749;DHT22;19119;52.474;13.710;2023-04-12T15:41:10;14.40;96.60
32749;DHT22;19119;52.474;13.710;2023-04-12T15:43:35;14.20;96.70